PDT,Max TemperatureF,Mean TemperatureF,Min TemperatureF,Max Dew PointF,MeanDew PointF,Min DewpointF,Max Humidity, Mean Humidity, Min Humidity, Max Sea Level PressureIn, Mean Sea Level PressureIn, Min Sea Level PressureIn, Max VisibilityMiles, Mean VisibilityMiles, Min VisibilityMiles, Max Wind SpeedMPH, Mean Wind SpeedMPH, Max Gust SpeedMPH,PrecipitationIn, CloudCover, Events, WindDirDegrees
2011-10-1,71,56,42,39,35,28,70,47,25,30.07,30.02,29.99,10,10,10,24,10,31,0.00,1,,196
2011-10-2,66,52,37,39,33,27,76,53,28,30.11,30.06,29.99,10,10,10,16,8,22,0.00,2,,179
2011-10-3,60,46,33,36,30,23,75,51,29,30.01,29.96,29.88,10,10,10,16,7,22,0.00,1,,177
2011-10-4,53,48,42,37,35,30,76,64,50,29.92,29.82,29.68,10,10,10,20,10,25,0.00,8,,199
2011-10-5,46,38,30,34,28,25,81,69,46,29.77,29.65,29.54,10,10,9,18,11,25,0.06,7,,207
2011-10-6,46,38,30,27,25,21,80,60,43,30.05,29.91,29.77,10,10,10,13,3,,0.00,8,,258
2011-10-7,55,44,32,36,30,25,80,58,44,30.21,30.17,30.09,10,10,10,12,4,,0.00,6,,196
2011-10-8,62,46,30,36,29,23,81,58,30,30.28,30.23,30.17,10,10,8,9,5,,0.00,0,,303
2011-10-9,62,42,23,34,25,16,80,56,25,30.18,30.11,29.99,10,10,10,9,4,,0.00,0,,188
2011-10-10,53,50,46,43,40,36,82,71,58,29.99,29.93,29.89,10,10,8,21,11,26,0.16,7,,171
2011-10-11,60,52,39,41,34,27,71,53,31,30.19,30.06,29.95,10,10,10,24,12,30,0.00,4,,214
2011-10-12,62,45,28,37,26,14,76,53,15,30.32,30.25,30.20,10,10,2,8,4,,0.00,2,,216
2011-10-13,68,47,26,36,26,18,70,47,23,30.22,30.15,30.05,10,10,5,9,5,,0.00,0,,230
2011-10-14,73,52,30,43,34,23,75,57,27,30.09,30.06,30.00,10,10,3,15,6,18,0.00,0,,291
2011-10-15,68,52,35,45,37,27,76,59,40,30.11,30.07,30.04,10,10,4,10,4,,0.00,0,,201
2011-10-16,66,54,42,45,39,34,76,60,39,30.24,30.13,30.08,10,10,10,16,5,23,0.00,3,,233
2011-10-17,66,46,26,36,26,18,74,50,24,30.42,30.36,30.32,10,10,5,12,7,,0.00,0,,331
2011-10-18,71,48,26,36,27,18,74,45,20,30.36,30.26,30.12,10,10,2,13,5,,0.00,0,,282
2011-10-19,62,46,30,32,26,21,93,64,32,30.16,30.11,30.08,10,10,10,7,4,,0.00,0,,338
2011-10-20,66,46,26,36,27,19,75,55,30,30.19,30.15,30.09,10,10,8,8,4,,0.00,0,,290
2011-10-21,64,46,28,36,29,19,80,57,32,30.34,30.28,30.18,10,10,10,8,4,,0.00,0,,238
2011-10-22,68,46,24,37,28,18,74,55,24,30.41,30.36,30.30,10,10,10,7,4,,0.00,0,,293
2011-10-23,68,48,28,36,29,21,80,51,21,30.29,30.20,30.09,10,10,5,8,4,,0.00,0,,328
2011-10-24,53,40,28,34,24,10,80,56,31,30.20,30.13,30.09,10,10,10,20,8,24,0.00,0,,352
2011-10-25,48,37,26,18,13,7,55,41,25,30.29,30.26,30.22,10,10,10,16,12,21,0.00,0,,351
2011-10-26,51,35,19,18,11,7,63,43,19,30.36,30.31,30.25,10,10,3,12,6,,0.00,0,,303
2011-10-27,60,38,17,18,13,7,64,40,15,30.25,30.22,30.18,10,10,10,9,3,,0.00,1,,310
2011-10-28,59,37,15,19,12,5,68,43,15,30.25,30.22,30.18,10,10,10,12,4,,0.00,0,,302
2011-10-29,60,45,30,37,28,12,66,48,38,30.35,30.31,30.25,10,10,9,9,4,,0.00,2,,165
2011-10-30,64,44,23,37,28,16,86,58,32,30.33,30.28,30.21,10,10,10,8,4,,0.00,0,,209
2011-10-31,55,44,32,39,29,18,87,58,30,30.26,30.22,30.17,10,10,10,17,5,22,0.00,1,,347